Time;durP1;ratioP1;P1;durP2;ratioP2;P2;SDS_P1;SDS_P2;PMS_P1;PMS_P2;Temp;Humidity;BMP_temperature;BMP_pressure;BME280_temperature;BME280_humidity;BME280_pressure;Samples;Min_cycle;Max_cycle;Signal;HPM_P1;HPM_P2
2022/03/10 00:01:16;;;;;;;3.35;1.55;;;;;;;7.31;60.24;102017.47;4963182;28;20444;-67
2022/03/10 00:03:42;;;;;;;2.30;1.67;;;;;;;7.27;60.37;102019.97;4990213;28;20033;-67
2022/03/10 00:06:07;;;;;;;2.10;1.40;;;;;;;7.14;61.23;102017.28;4992070;28;20046;-67
2022/03/10 00:08:33;;;;;;;2.67;1.77;;;;;;;7.11;61.67;102020.53;4988938;28;20156;-67
2022/03/10 00:10:58;;;;;;;5.18;2.22;;;;;;;7.17;61.03;102024.72;4986997;28;20423;-66
2022/03/10 00:13:26;;;;;;;3.13;1.58;;;;;;;7.06;62.13;102026.81;4990765;28;20109;-66
2022/03/10 00:15:52;;;;;;;3.45;1.73;;;;;;;7.03;62.03;102034.63;4973172;28;20039;-67
2022/03/10 00:18:17;;;;;;;4.57;1.85;;;;;;;6.99;62.30;102039.78;4986641;28;20046;-66
2022/03/10 00:20:45;;;;;;;4.00;2.05;;;;;;;6.97;62.73;102033.91;4982668;28;20126;-66
2022/03/10 00:23:11;;;;;;;3.55;1.92;;;;;;;6.96;63.10;102039.56;4990731;28;20173;-67
2022/03/10 00:25:37;;;;;;;4.60;1.98;;;;;;;6.96;63.20;102028.88;4977507;28;20034;-67
2022/03/10 00:28:03;;;;;;;4.20;1.60;;;;;;;6.95;63.27;102038.00;4980455;28;20035;-67
2022/03/10 00:30:28;;;;;;;2.50;1.73;;;;;;;6.98;63.03;102029.38;4991853;28;20065;-67
2022/03/10 00:32:54;;;;;;;3.25;1.95;;;;;;;7.02;63.04;102030.38;4983716;28;20030;-67
2022/03/10 00:35:24;;;;;;;6.15;1.83;;;;;;;7.01;62.63;102042.16;4964876;28;20037;-66
2022/03/10 00:37:50;;;;;;;2.83;1.77;;;;;;;6.94;62.79;102037.19;4990914;28;20659;-67
2022/03/10 00:40:16;;;;;;;4.05;2.10;;;;;;;6.98;62.50;102040.88;4991290;28;20076;-66
2022/03/10 00:42:43;;;;;;;3.70;2.10;;;;;;;6.92;62.85;102049.28;4987574;28;20117;-67
2022/03/10 00:45:10;;;;;;;4.22;2.13;;;;;;;6.92;63.40;102054.63;4986734;28;20121;-66
2022/03/10 00:47:36;;;;;;;3.17;1.80;;;;;;;6.89;63.15;102063.28;4972629;28;20038;-67
2022/03/10 00:50:03;;;;;;;6.88;2.13;;;;;;;6.82;63.69;102058.28;4955355;28;20109;-67
2022/03/10 00:52:28;;;;;;;8.25;2.38;;;;;;;6.82;63.70;102065.53;4985973;28;20048;-67
2022/03/10 00:54:54;;;;;;;3.30;2.13;;;;;;;6.79;63.73;102058.91;4988852;28;20038;-67
2022/03/10 00:57:20;;;;;;;4.68;2.22;;;;;;;6.83;62.81;102056.41;4991364;28;20050;-67
2022/03/10 00:59:45;;;;;;;5.95;1.60;;;;;;;6.72;63.51;102060.34;4989334;28;20045;-67
2022/03/10 01:02:11;;;;;;;3.85;1.60;;;;;;;6.71;64.38;102048.06;4975636;28;20196;-67
2022/03/10 01:04:36;;;;;;;3.45;1.63;;;;;;;6.70;64.28;102052.59;4980485;28;20062;-67
2022/03/10 01:07:02;;;;;;;3.67;1.70;;;;;;;6.67;64.16;102041.69;4967416;28;20125;-67
2022/03/10 01:09:27;;;;;;;4.00;1.98;;;;;;;6.76;63.68;102050.63;4987208;28;20034;-66
2022/03/10 01:11:56;;;;;;;7.35;1.45;;;;;;;6.80;62.86;102055.13;4985416;28;20518;-67
2022/03/10 01:14:21;;;;;;;5.90;1.98;;;;;;;6.65;63.46;102050.03;4988965;28;20064;-66
2022/03/10 01:16:47;;;;;;;4.47;2.17;;;;;;;6.69;63.23;102051.03;4988249;28;20038;-66
2022/03/10 01:19:14;;;;;;;2.70;1.42;;;;;;;6.63;64.08;102041.50;4971033;28;20034;-67
2022/03/10 01:21:41;;;;;;;5.40;2.25;;;;;;;6.74;63.12;102040.22;4963261;28;20039;-67
2022/03/10 01:24:07;;;;;;;2.95;1.80;;;;;;;6.66;63.74;102040.13;4989731;28;20085;-67
2022/03/10 01:26:32;;;;;;;6.45;1.77;;;;;;;6.62;63.84;102037.22;4991006;28;20491;-67
2022/03/10 01:28:57;;;;;;;4.13;2.00;;;;;;;6.51;64.41;102035.00;4975946;28;20535;-66
2022/03/10 01:31:23;;;;;;;3.30;1.63;;;;;;;6.50;64.55;102041.47;4978434;28;20058;-67
2022/03/10 01:33:48;;;;;;;2.72;1.90;;;;;;;6.56;64.23;102030.38;4983290;28;20045;-68
2022/03/10 01:36:13;;;;;;;4.30;1.55;;;;;;;6.54;64.13;102032.56;4976131;28;20031;-67
2022/03/10 01:38:39;;;;;;;3.33;1.80;;;;;;;6.58;63.77;102022.06;4985536;28;20666;-69
2022/03/10 01:41:08;;;;;;;5.85;1.85;;;;;;;6.49;64.20;102037.19;4983556;28;20534;-70
2022/03/10 01:43:54;;;;;;;3.15;1.63;;;;;;;6.41;64.47;102032.53;4986903;28;20074;-69
2022/03/10 01:46:20;;;;;;;4.05;2.30;;;;;;;6.39;64.91;102033.59;4983478;28;20114;-69
2022/03/10 01:48:45;;;;;;;6.88;1.92;;;;;;;6.36;65.45;102028.84;4989222;28;20030;-69
2022/03/10 01:51:12;;;;;;;4.43;2.08;;;;;;;6.38;65.41;102032.03;4969634;28;20034;-69
2022/03/10 01:53:37;;;;;;;2.83;1.90;;;;;;;6.35;65.02;102040.59;4974080;28;20487;-69
2022/03/10 01:56:03;;;;;;;3.00;1.73;;;;;;;6.38;65.60;102031.22;4989863;28;20041;-70
2022/03/10 01:58:29;;;;;;;4.28;1.92;;;;;;;6.31;65.49;102039.59;4974902;28;20043;-69
2022/03/10 02:00:55;;;;;;;5.00;2.20;;;;;;;6.28;65.42;102040.19;4978294;28;20141;-69
2022/03/10 02:03:21;;;;;;;1.90;1.52;;;;;;;6.24;65.45;102039.19;4987163;28;20030;-69
2022/03/10 02:05:47;;;;;;;9.00;2.13;;;;;;;6.26;65.45;102046.91;4960736;28;20240;-69
2022/03/10 02:10:56;;;;;;;1.73;1.38;;;;;;;6.30;64.67;102047.91;4985082;28;20060;-69
2022/03/10 02:13:22;;;;;;;4.40;1.70;;;;;;;6.31;65.16;102039.59;4983980;28;20495;-70
2022/03/10 02:18:31;;;;;;;3.85;2.03;;;;;;;6.29;64.99;102035.66;4974394;28;20089;-70
2022/03/10 02:20:57;;;;;;;3.63;1.98;;;;;;;6.28;64.79;102034.03;4983619;28;20034;-69
2022/03/10 02:23:23;;;;;;;3.42;1.73;;;;;;;6.21;65.27;102042.44;4990526;28;20048;-69
2022/03/10 02:25:48;;;;;;;4.63;1.77;;;;;;;6.18;65.74;102045.69;4977836;28;20038;-69
2022/03/10 02:28:13;;;;;;;4.30;2.47;;;;;;;6.15;65.82;102042.81;4987901;28;20034;-69
2022/03/10 02:30:39;;;;;;;5.60;2.53;;;;;;;6.10;65.93;102042.88;4991236;28;20030;-69
2022/03/10 02:33:05;;;;;;;4.50;2.05;;;;;;;6.10;66.09;102048.22;4994658;28;20057;-69
2022/03/10 02:35:31;;;;;;;3.53;1.73;;;;;;;5.96;66.20;102044.69;4989647;28;20038;-69
2022/03/10 02:37:56;;;;;;;4.25;1.77;;;;;;;5.95;66.68;102041.22;4986645;28;20039;-69
2022/03/10 02:40:22;;;;;;;3.50;1.90;;;;;;;5.91;67.26;102045.56;4966627;28;20038;-68
2022/03/10 02:42:48;;;;;;;3.83;1.60;;;;;;;5.89;67.42;102037.03;4977646;28;20054;-68
2022/03/10 02:45:13;;;;;;;4.63;2.00;;;;;;;5.94;66.87;102038.84;4986665;28;20043;-68
2022/03/10 02:47:39;;;;;;;5.93;1.88;;;;;;;5.92;67.17;102035.66;4989409;28;20036;-69
2022/03/10 02:50:07;;;;;;;5.20;2.55;;;;;;;5.94;66.91;102038.84;4986337;28;20027;-69
2022/03/10 02:52:34;;;;;;;4.70;2.10;;;;;;;5.93;66.79;102043.38;4975697;28;20387;-69
2022/03/10 02:54:59;;;;;;;5.03;1.92;;;;;;;5.89;66.98;102052.25;4968759;28;20034;-69
2022/03/10 02:57:27;;;;;;;2.55;1.30;;;;;;;5.85;67.21;102051.25;4976145;28;20093;-69
2022/03/10 02:59:53;;;;;;;7.38;1.83;;;;;;;5.86;67.46;102058.19;4978555;28;20461;-69
2022/03/10 03:02:18;;;;;;;3.63;1.92;;;;;;;5.80;68.06;102046.75;4981931;28;20038;-68
2022/03/10 03:04:44;;;;;;;2.40;1.40;;;;;;;5.82;67.59;102041.91;4965355;28;20068;-69
2022/03/10 03:07:09;;;;;;;3.40;1.50;;;;;;;5.86;66.90;102055.53;4978378;28;20173;-69
2022/03/10 03:09:34;;;;;;;3.33;1.45;;;;;;;5.82;67.47;102043.78;4985954;28;20494;-69
2022/03/10 03:12:00;;;;;;;3.50;2.00;;;;;;;5.72;67.65;102050.06;4979155;28;20117;-69
2022/03/10 03:14:26;;;;;;;5.03;1.77;;;;;;;5.72;68.40;102058.09;4971769;28;20035;-69
2022/03/10 03:16:52;;;;;;;6.15;2.17;;;;;;;5.71;68.68;102055.69;4981934;28;20031;-68
2022/03/10 03:19:18;;;;;;;3.50;1.90;;;;;;;5.66;68.72;102048.53;4974580;28;20034;-69
2022/03/10 03:21:43;;;;;;;3.63;1.77;;;;;;;5.63;68.59;102062.47;4971119;28;20388;-69
2022/03/10 03:24:09;;;;;;;4.55;2.25;;;;;;;5.58;68.95;102062.53;4992776;28;20042;-69
2022/03/10 03:26:34;;;;;;;3.33;2.13;;;;;;;5.54;69.48;102056.16;4992916;28;20104;-69
2022/03/10 03:29:00;;;;;;;2.55;1.85;;;;;;;5.48;70.16;102060.78;4979223;28;20061;-68
2022/03/10 03:31:25;;;;;;;3.50;1.65;;;;;;;5.45;69.79;102058.69;4985645;28;20042;-68
2022/03/10 03:33:50;;;;;;;3.85;1.73;;;;;;;5.41;70.42;102065.69;4974803;28;20510;-69
2022/03/10 03:36:16;;;;;;;3.40;2.05;;;;;;;5.42;70.33;102069.13;4976875;28;20105;-69
2022/03/10 03:38:41;;;;;;;3.08;1.67;;;;;;;5.37;69.88;102070.00;4988244;28;20040;-69
2022/03/10 03:41:07;;;;;;;4.50;2.00;;;;;;;5.37;70.26;102075.34;4991811;28;20113;-69
2022/03/10 03:43:32;;;;;;;4.32;1.90;;;;;;;5.38;69.96;102086.81;4967025;28;20034;-69
2022/03/10 03:45:58;;;;;;;6.95;1.90;;;;;;;5.26;70.90;102084.56;4987577;28;20113;-68
2022/03/10 03:48:26;;;;;;;3.90;1.73;;;;;;;5.29;70.56;102085.84;4973606;28;20030;-69
2022/03/10 03:50:52;;;;;;;4.10;1.83;;;;;;;5.27;70.36;102080.78;4986230;28;20042;-69
2022/03/10 03:53:18;;;;;;;4.65;1.77;;;;;;;5.37;70.31;102088.69;4986734;28;20110;-69
2022/03/10 03:55:43;;;;;;;3.88;1.80;;;;;;;5.24;70.69;102086.72;4985000;28;20045;-69
2022/03/10 03:58:09;;;;;;;6.63;2.30;;;;;;;5.19;71.32;102093.94;4980752;28;20034;-69
2022/03/10 04:00:36;;;;;;;3.53;1.67;;;;;;;5.22;71.38;102090.72;4985105;28;20487;-69
2022/03/10 04:03:09;;;;;;;9.50;2.40;;;;;;;5.16;71.36;102090.00;4973101;28;20042;-69
2022/03/10 04:05:36;;;;;;;4.30;1.95;;;;;;;5.18;71.51;102098.50;4988779;28;20030;-69
2022/03/10 04:08:01;;;;;;;8.60;2.60;;;;;;;5.15;71.64;102090.28;4982513;28;20492;-69
2022/03/10 04:10:27;;;;;;;5.13;2.20;;;;;;;5.15;71.49;102090.28;4991972;28;20093;-69
2022/03/10 04:12:52;;;;;;;4.60;1.60;;;;;;;5.15;72.09;102095.63;4975522;28;21324;-69
2022/03/10 04:15:17;;;;;;;4.57;2.33;;;;;;;5.09;71.89;102091.41;4990789;28;20042;-69
2022/03/10 04:17:43;;;;;;;4.88;1.83;;;;;;;5.00;72.36;102088.53;4984218;28;20047;-69
2022/03/10 04:20:13;;;;;;;5.05;2.58;;;;;;;5.06;72.38;102094.63;4971977;28;20051;-69
2022/03/10 04:22:39;;;;;;;6.72;2.20;;;;;;;5.02;72.64;102098.94;4985037;28;20128;-69
2022/03/10 04:25:08;;;;;;;3.53;2.30;;;;;;;5.05;72.46;102093.03;4988978;28;20031;-69
2022/03/10 04:27:34;;;;;;;5.63;2.03;;;;;;;5.05;72.28;102091.16;4973026;28;20388;-69
2022/03/10 04:30:00;;;;;;;5.13;2.28;;;;;;;4.98;72.44;102096.03;4979281;28;20030;-69
2022/03/10 04:32:26;;;;;;;5.65;2.05;;;;;;;5.01;72.63;102100.81;4987907;28;20034;-69
2022/03/10 04:34:51;;;;;;;7.55;2.42;;;;;;;5.04;72.63;102112.78;4983390;28;20038;-69
2022/03/10 04:37:17;;;;;;;4.22;1.98;;;;;;;5.00;71.90;102104.56;4988302;28;20037;-69
2022/03/10 04:39:42;;;;;;;2.53;1.85;;;;;;;4.95;72.46;102109.94;4990266;28;20038;-69
2022/03/10 04:42:07;;;;;;;3.28;1.75;;;;;;;4.92;72.71;102110.50;4990297;28;20038;-69
2022/03/10 04:44:33;;;;;;;4.90;1.88;;;;;;;4.92;73.17;102120.38;4986913;28;20046;-69
2022/03/10 04:46:58;;;;;;;4.57;1.85;;;;;;;4.91;72.84;102119.59;4982652;28;20034;-70
2022/03/10 04:49:24;;;;;;;6.03;2.20;;;;;;;4.92;73.10;102113.16;4986898;28;20117;-68
2022/03/10 04:51:49;;;;;;;8.15;2.10;;;;;;;4.87;72.61;102120.41;4988188;28;20057;-69
2022/03/10 04:54:15;;;;;;;5.22;2.47;;;;;;;4.89;72.69;102118.28;4990275;28;20519;-69
2022/03/10 04:56:41;;;;;;;7.13;2.40;;;;;;;4.86;72.84;102108.94;4981858;28;20034;-69
2022/03/10 04:59:06;;;;;;;4.88;2.00;;;;;;;4.82;73.54;102123.91;4978071;28;20030;-69
2022/03/10 05:01:31;;;;;;;6.15;2.38;;;;;;;4.80;74.24;102114.63;4977304;28;20483;-68
2022/03/10 05:03:57;;;;;;;3.08;1.70;;;;;;;4.78;74.06;102122.88;4980400;28;20109;-69
2022/03/10 05:06:22;;;;;;;4.38;2.10;;;;;;;4.77;73.57;102126.63;4985153;28;20491;-70
2022/03/10 05:08:48;;;;;;;9.27;2.08;;;;;;;4.79;73.43;102131.69;4981465;28;20077;-69
2022/03/10 05:11:14;;;;;;;6.60;2.55;;;;;;;4.77;74.03;102126.63;4980620;28;20030;-70
2022/03/10 05:13:39;;;;;;;3.47;1.95;;;;;;;4.74;73.74;102131.75;4970638;28;20041;-70
2022/03/10 05:16:05;;;;;;;6.75;2.67;;;;;;;4.71;74.50;102126.94;4972203;28;20027;-69
2022/03/10 05:18:31;;;;;;;6.72;2.40;;;;;;;4.68;74.45;102124.84;4980256;28;20043;-69
2022/03/10 05:20:56;;;;;;;4.82;2.20;;;;;;;4.66;74.82;102133.13;4985812;28;20104;-69
2022/03/10 05:23:22;;;;;;;3.53;1.95;;;;;;;4.67;74.62;102137.38;4970735;28;20038;-69
2022/03/10 05:25:48;;;;;;;4.95;2.30;;;;;;;4.64;73.86;102137.16;4968241;28;20109;-69
2022/03/10 05:28:14;;;;;;;7.15;2.25;;;;;;;4.53;75.10;102131.06;4986446;28;20036;-69
2022/03/10 05:30:41;;;;;;;8.07;2.58;;;;;;;4.52;75.25;102132.97;4962716;28;20038;-69
2022/03/10 05:33:08;;;;;;;5.65;2.30;;;;;;;4.53;75.08;102133.75;4985891;28;20034;-69
2022/03/10 05:35:34;;;;;;;3.22;1.73;;;;;;;4.54;75.29;102136.16;4985738;28;20041;-69
2022/03/10 05:37:59;;;;;;;5.82;2.20;;;;;;;4.51;74.73;102136.69;4965161;28;20411;-68
2022/03/10 05:40:25;;;;;;;6.38;2.38;;;;;;;4.51;75.21;102127.88;4984527;28;20037;-69
2022/03/10 05:42:54;;;;;;;6.80;2.88;;;;;;;4.48;75.48;102131.13;4989115;28;20098;-69
2022/03/10 05:45:20;;;;;;;5.60;2.25;;;;;;;4.48;75.78;102123.13;4977616;28;20053;-69
2022/03/10 05:47:56;;;;;;;4.22;2.38;;;;;;;4.47;76.06;102118.88;4988420;28;20068;-69
2022/03/10 05:50:23;;;;;;;4.50;1.90;;;;;;;4.45;75.60;102121.78;4989825;28;20034;-69
2022/03/10 05:52:49;;;;;;;4.82;2.50;;;;;;;4.50;74.80;102120.97;4985005;28;20041;-69
2022/03/10 05:55:16;;;;;;;6.28;2.90;;;;;;;4.48;75.35;102123.94;4961219;28;20949;-69
2022/03/10 05:57:42;;;;;;;4.70;2.20;;;;;;;4.41;76.40;102117.31;4985065;28;20036;-69
2022/03/10 06:00:10;;;;;;;4.22;2.60;;;;;;;4.46;76.01;102119.94;4994557;28;20038;-69
2022/03/10 06:02:39;;;;;;;6.13;1.92;;;;;;;4.45;75.28;102126.34;4985094;28;20426;-69
2022/03/10 06:05:04;;;;;;;7.10;2.92;;;;;;;4.45;76.09;102139.69;4985097;28;20122;-69
2022/03/10 06:07:30;;;;;;;6.25;2.53;;;;;;;4.49;75.74;102133.50;4991328;28;20123;-70
2022/03/10 06:09:56;;;;;;;6.50;2.83;;;;;;;4.44;75.83;102130.88;4993386;28;20054;-69
2022/03/10 06:12:23;;;;;;;3.95;2.15;;;;;;;4.48;75.47;102137.25;4966506;28;20044;-69
2022/03/10 06:14:53;;;;;;;4.25;2.45;;;;;;;4.54;76.01;102132.69;4980445;28;21629;-68
2022/03/10 06:17:18;;;;;;;8.65;2.53;;;;;;;4.51;76.00;102134.03;4975971;28;20034;-69
2022/03/10 06:19:43;;;;;;;8.55;2.22;;;;;;;4.50;75.61;102139.66;4987355;28;20050;-68
2022/03/10 06:22:10;;;;;;;8.93;2.47;;;;;;;4.48;75.55;102141.78;4987006;28;20610;-68
2022/03/10 06:24:35;;;;;;;9.95;2.90;;;;;;;4.48;75.92;102139.13;4989434;28;20040;-69
2022/03/10 06:27:01;;;;;;;8.27;2.97;;;;;;;4.50;76.53;102148.44;4976232;28;20097;-69
2022/03/10 06:29:26;;;;;;;7.13;3.00;;;;;;;4.51;76.08;102154.56;4983922;28;20030;-69
2022/03/10 06:31:52;;;;;;;7.13;2.65;;;;;;;4.52;75.90;102159.63;4981788;28;20078;-69
2022/03/10 06:34:18;;;;;;;5.45;2.47;;;;;;;4.48;75.77;102155.94;4956911;28;20160;-69
2022/03/10 06:36:43;;;;;;;5.72;2.33;;;;;;;4.56;76.17;102167.88;4985214;28;20062;-69
2022/03/10 06:39:08;;;;;;;5.80;2.67;;;;;;;4.57;76.07;102180.13;4986661;28;20045;-69
2022/03/10 06:41:34;;;;;;;5.53;2.55;;;;;;;4.58;76.95;102182.53;4984126;28;20030;-69
2022/03/10 06:43:59;;;;;;;6.20;2.47;;;;;;;4.62;76.31;102174.78;4987923;28;20394;-68
2022/03/10 06:46:25;;;;;;;4.22;2.30;;;;;;;4.63;76.06;102172.91;4994458;28;20037;-69
2022/03/10 06:48:50;;;;;;;8.15;2.33;;;;;;;4.65;75.92;102182.22;4975137;28;20126;-69
2022/03/10 06:51:16;;;;;;;5.47;2.00;;;;;;;4.65;76.16;102187.53;4968910;28;20479;-69
2022/03/10 06:53:41;;;;;;;4.97;2.20;;;;;;;4.73;75.70;102189.63;4989895;28;20113;-70
2022/03/10 06:56:07;;;;;;;3.95;2.35;;;;;;;4.71;75.05;102181.09;4991797;28;20085;-69
2022/03/10 06:58:32;;;;;;;5.78;2.75;;;;;;;4.80;75.33;102181.31;4974638;28;20093;-69
2022/03/10 07:00:58;;;;;;;3.67;2.05;;;;;;;4.79;74.34;102183.19;4987235;28;20042;-69
2022/03/10 07:03:23;;;;;;;7.55;3.03;;;;;;;4.82;74.02;102187.97;4991084;28;20097;-69
2022/03/10 07:05:49;;;;;;;6.18;2.42;;;;;;;4.91;74.42;102188.97;4992611;28;20044;-69
2022/03/10 07:08:14;;;;;;;6.28;2.80;;;;;;;4.95;73.94;102191.88;4991324;28;20071;-68
2022/03/10 07:10:40;;;;;;;5.60;2.28;;;;;;;4.96;73.48;102188.94;4989097;28;20034;-70
2022/03/10 07:13:07;;;;;;;7.03;2.65;;;;;;;5.02;73.49;102201.16;4992779;28;20121;-69
2022/03/10 07:15:33;;;;;;;5.90;2.67;;;;;;;5.11;72.95;102196.03;4984398;28;20117;-68
2022/03/10 07:17:58;;;;;;;7.50;2.30;;;;;;;5.19;73.21;102195.41;4990891;28;20129;-67
2022/03/10 07:20:24;;;;;;;7.85;2.58;;;;;;;5.28;72.38;102202.53;4991995;28;20097;-69
2022/03/10 07:22:49;;;;;;;5.47;2.25;;;;;;;5.26;72.79;102193.22;4969056;28;20033;-70
2022/03/10 07:25:14;;;;;;;5.93;2.45;;;;;;;5.35;73.13;102194.19;4974327;28;20046;-69
2022/03/10 07:27:40;;;;;;;7.82;2.67;;;;;;;5.47;72.66;102206.13;4992081;28;20049;-69
2022/03/10 07:30:07;;;;;;;3.38;1.95;;;;;;;5.67;72.13;102204.31;4968358;28;20042;-70
2022/03/10 07:32:33;;;;;;;9.48;3.22;;;;;;;5.86;71.05;102202.53;4981937;28;20041;-69
2022/03/10 07:34:59;;;;;;;5.25;2.67;;;;;;;6.07;70.06;102203.88;4969165;28;20077;-69
2022/03/10 07:37:25;;;;;;;6.97;3.00;;;;;;;6.17;69.91;102198.41;4986108;28;20041;-70
2022/03/10 07:39:50;;;;;;;6.63;2.42;;;;;;;6.32;69.34;102212.41;4971407;28;20046;-69
2022/03/10 07:42:16;;;;;;;5.18;2.63;;;;;;;6.48;68.67;102204.97;4964094;28;20539;-70
2022/03/10 07:44:42;;;;;;;5.97;2.63;;;;;;;6.68;68.45;102199.31;4986887;28;20030;-69
2022/03/10 07:47:07;;;;;;;12.30;3.60;;;;;;;6.88;67.25;102207.06;4985398;28;20352;-69
2022/03/10 07:49:33;;;;;;;6.13;2.80;;;;;;;7.09;66.66;102194.13;4986471;28;20542;-69
2022/03/10 07:52:00;;;;;;;10.05;3.38;;;;;;;7.38;64.80;102194.69;4986514;28;20038;-70
2022/03/10 07:54:25;;;;;;;5.35;3.20;;;;;;;7.53;64.46;102190.97;4988262;28;20046;-69
2022/03/10 07:56:51;;;;;;;5.72;3.08;;;;;;;7.68;63.55;102201.41;4953014;28;20712;-69
2022/03/10 07:59:17;;;;;;;7.07;3.17;;;;;;;7.91;62.50;102192.38;4986388;28;20038;-69
2022/03/10 08:01:42;;;;;;;6.07;3.05;;;;;;;8.13;62.34;102203.19;4970573;28;20065;-69
2022/03/10 08:04:07;;;;;;;9.63;3.88;;;;;;;8.27;61.66;102203.19;4982778;28;20042;-69
2022/03/10 08:06:34;;;;;;;6.30;3.42;;;;;;;8.46;60.62;102215.38;4985116;28;20038;-70
2022/03/10 08:08:59;;;;;;;11.00;3.03;;;;;;;8.57;60.00;102218.66;4983855;28;20069;-69
2022/03/10 08:11:25;;;;;;;12.38;3.60;;;;;;;8.65;59.02;102209.88;4987184;28;20054;-69
2022/03/10 08:13:50;;;;;;;8.38;3.72;;;;;;;8.75;58.05;102220.41;4987110;28;20073;-69
2022/03/10 08:16:16;;;;;;;5.70;3.15;;;;;;;8.77;57.56;102204.75;4988279;28;20418;-69
2022/03/10 08:18:42;;;;;;;5.97;2.97;;;;;;;8.86;57.66;102206.44;4988392;28;20030;-69
2022/03/10 08:21:07;;;;;;;10.85;3.17;;;;;;;8.79;57.38;102202.56;4989089;28;20034;-69
2022/03/10 08:23:32;;;;;;;7.55;3.05;;;;;;;8.82;57.50;102218.09;4954301;28;20560;-68
2022/03/10 08:25:58;;;;;;;8.43;3.55;;;;;;;8.86;58.04;102211.81;4986693;28;20566;-69
2022/03/10 08:28:26;;;;;;;9.88;3.53;;;;;;;8.99;57.70;102208.28;4970649;28;20041;-68
2022/03/10 08:30:52;;;;;;;7.72;3.08;;;;;;;9.20;58.06;102211.25;4989646;28;20034;-68
2022/03/10 08:33:17;;;;;;;7.97;3.17;;;;;;;9.44;56.65;102217.09;4986235;28;20554;-68
2022/03/10 08:35:43;;;;;;;9.02;3.70;;;;;;;9.67;56.69;102217.84;4983016;28;20057;-67
2022/03/10 08:38:08;;;;;;;8.85;3.90;;;;;;;9.73;55.88;102220.09;4985769;28;20487;-67
2022/03/10 08:40:34;;;;;;;8.98;3.33;;;;;;;9.87;55.81;102211.94;4985801;28;20076;-68
2022/03/10 08:43:00;;;;;;;10.15;3.28;;;;;;;9.93;55.28;102197.19;4968290;28;20037;-68
2022/03/10 08:45:25;;;;;;;11.00;3.85;;;;;;;10.21;54.43;102205.88;4960331;28;20090;-67
2022/03/10 08:47:55;;;;;;;6.45;3.50;;;;;;;10.20;54.50;102204.28;4974158;28;20321;-68
2022/03/10 08:50:22;;;;;;;9.18;3.38;;;;;;;10.37;53.19;102191.66;4981968;28;20034;-68
2022/03/10 08:52:48;;;;;;;7.85;3.28;;;;;;;10.35;53.20;102193.88;4983287;28;20030;-68
2022/03/10 08:55:13;;;;;;;9.55;3.72;;;;;;;10.52;53.88;102193.09;4984059;28;20046;-67
2022/03/10 08:57:40;;;;;;;6.28;3.10;;;;;;;10.76;52.77;102193.41;4989231;28;20026;-68
2022/03/10 09:00:08;;;;;;;8.23;3.67;;;;;;;10.77;52.88;102197.69;4984262;28;20038;-68
2022/03/10 09:02:33;;;;;;;5.75;3.20;;;;;;;10.94;52.10;102191.50;4987257;28;20368;-68
2022/03/10 09:04:59;;;;;;;9.52;4.00;;;;;;;10.86;52.06;102191.19;4983031;28;20038;-68
2022/03/10 09:07:25;;;;;;;7.55;3.35;;;;;;;11.12;51.50;102196.53;4990982;28;20038;-68
2022/03/10 09:09:50;;;;;;;8.02;3.50;;;;;;;11.11;51.74;102194.19;4987313;28;20040;-68
2022/03/10 09:12:15;;;;;;;9.80;3.50;;;;;;;11.27;52.00;102200.63;4990664;28;20065;-68
2022/03/10 09:14:41;;;;;;;9.07;3.88;;;;;;;11.43;50.90;102199.81;4985436;28;20117;-67
2022/03/10 09:17:06;;;;;;;6.63;3.17;;;;;;;11.72;49.68;102202.59;4972875;28;20031;-68
2022/03/10 09:19:32;;;;;;;7.45;3.38;;;;;;;11.58;50.32;102190.38;4985193;28;20522;-68
2022/03/10 09:21:59;;;;;;;12.85;3.75;;;;;;;11.68;50.28;102195.47;4986001;28;20052;-68
2022/03/10 09:24:25;;;;;;;5.30;2.72;;;;;;;11.83;50.60;102194.91;4979175;28;20049;-68
2022/03/10 09:26:50;;;;;;;4.30;2.53;;;;;;;12.00;50.07;102194.81;4982037;28;20023;-68
2022/03/10 09:29:15;;;;;;;8.27;3.40;;;;;;;12.12;49.28;102177.91;4982620;28;20038;-68
2022/03/10 09:31:41;;;;;;;5.15;2.83;;;;;;;12.23;49.39;102182.59;4984919;28;20109;-68
2022/03/10 09:34:07;;;;;;;9.40;4.30;;;;;;;12.46;48.80;102188.50;4982579;28;20117;-67
2022/03/10 09:36:33;;;;;;;12.60;4.47;;;;;;;12.67;47.77;102181.97;4985481;28;20034;-68
2022/03/10 09:38:58;;;;;;;12.98;3.45;;;;;;;12.41;48.62;102181.38;4986015;28;20574;-68
2022/03/10 09:41:24;;;;;;;7.20;3.05;;;;;;;12.68;48.14;102183.56;4984878;28;20066;-68
2022/03/10 09:43:50;;;;;;;7.47;3.08;;;;;;;12.63;48.86;102172.16;4989883;28;20121;-68
2022/03/10 09:46:15;;;;;;;7.93;3.90;;;;;;;12.92;47.55;102180.16;4987728;28;20123;-68
2022/03/10 09:48:41;;;;;;;7.10;3.42;;;;;;;12.86;48.67;102175.28;4988158;28;20042;-68
2022/03/10 09:51:08;;;;;;;9.45;3.60;;;;;;;12.90;49.15;102166.19;4982307;28;20543;-68
2022/03/10 09:53:35;;;;;;;7.05;2.95;;;;;;;12.96;48.95;102178.38;4987130;28;20098;-68
2022/03/10 09:56:03;;;;;;;7.90;3.15;;;;;;;13.08;47.80;102178.47;4979554;28;20505;-67
2022/03/10 09:58:30;;;;;;;8.00;3.47;;;;;;;12.94;47.76;102179.81;4986379;28;20459;-68
2022/03/10 10:01:04;;;;;;;6.82;2.97;;;;;;;12.86;47.69;102173.38;4963493;28;20076;-68
2022/03/10 10:03:29;;;;;;;9.18;3.28;;;;;;;12.70;48.08;102165.09;4985905;28;20094;-68
2022/03/10 10:05:59;;;;;;;9.38;3.50;;;;;;;12.64;48.50;102166.41;4985355;28;20042;-68
2022/03/10 10:08:26;;;;;;;6.00;3.10;;;;;;;12.56;48.73;102169.97;4984749;28;20093;-68
2022/03/10 10:11:02;;;;;;;8.95;3.63;;;;;;;12.55;48.60;102175.72;4987702;28;20030;-68
2022/03/10 10:13:38;;;;;;;10.90;3.45;;;;;;;12.71;49.30;102174.00;4963454;28;20069;-67
2022/03/10 10:16:09;;;;;;;9.00;2.95;;;;;;;12.93;48.25;102178.25;4979410;28;20088;-68
2022/03/10 10:18:35;;;;;;;6.20;3.25;;;;;;;12.94;48.87;102180.63;4966692;28;20048;-68
2022/03/10 10:21:02;;;;;;;4.68;2.75;;;;;;;13.19;47.00;102174.19;4989504;28;20062;-67
2022/03/10 10:23:31;;;;;;;8.70;3.63;;;;;;;13.10;47.56;102170.00;4984682;28;20121;-68
2022/03/10 10:26:03;;;;;;;9.43;3.00;;;;;;;13.10;47.11;102178.91;4967528;28;20032;-69
2022/03/10 10:28:31;;;;;;;7.38;3.25;;;;;;;13.01;47.21;102175.47;4988601;28;20400;-68
2022/03/10 10:30:57;;;;;;;7.97;2.90;;;;;;;12.87;47.91;102176.88;4985912;28;20034;-68
2022/03/10 10:33:23;;;;;;;10.95;3.10;;;;;;;13.17;47.58;102181.06;4986014;28;20120;-68
2022/03/10 10:35:49;;;;;;;7.60;3.10;;;;;;;13.12;47.23;102173.16;4986259;28;20037;-68
2022/03/10 10:38:30;;;;;;;6.85;2.95;;;;;;;13.25;46.39;102175.56;4986485;28;20407;-68
2022/03/10 10:41:14;;;;;;;;;;;;;;;13.09;46.84;102193.56;4992462;28;20046;-68
2022/03/10 10:43:47;;;;;;;7.72;3.38;;;;;;;13.01;46.79;102180.06;4989650;28;20611;-68
2022/03/10 10:46:41;;;;;;;7.95;3.17;;;;;;;13.06;46.61;102177.19;4966574;28;20062;-67
2022/03/10 10:49:10;;;;;;;9.82;3.22;;;;;;;13.04;46.56;102184.84;4986236;28;20165;-68
2022/03/10 10:51:40;;;;;;;9.50;4.00;;;;;;;13.14;46.62;102184.44;4988418;28;20053;-68
2022/03/10 10:54:09;;;;;;;7.28;3.03;;;;;;;13.19;46.89;102181.53;4988475;28;20046;-67
2022/03/10 10:56:44;;;;;;;6.72;3.08;;;;;;;13.19;46.93;102173.41;4985674;28;20475;-68
2022/03/10 10:59:25;;;;;;;8.55;3.08;;;;;;;13.24;46.09;102170.50;4987583;28;20034;-68
2022/03/10 11:01:50;;;;;;;9.02;2.95;;;;;;;13.25;46.60;102169.38;4971550;28;20411;-68
2022/03/10 11:04:16;;;;;;;7.35;2.85;;;;;;;13.35;46.45;102168.94;4973867;28;20053;-68
2022/03/10 11:06:44;;;;;;;8.05;2.70;;;;;;;13.31;45.57;102170.72;4987333;28;20038;-68
2022/03/10 11:09:13;;;;;;;6.03;2.67;;;;;;;13.25;45.92;102170.16;4968405;28;20034;-68
2022/03/10 11:11:38;;;;;;;7.32;2.75;;;;;;;13.23;45.77;102155.38;4984411;28;20395;-67
2022/03/10 11:14:04;;;;;;;8.95;2.88;;;;;;;13.35;45.50;102155.41;4984417;28;20046;-68
2022/03/10 11:16:29;;;;;;;6.95;3.13;;;;;;;13.32;45.75;102161.47;4981208;28;20043;-68
2022/03/10 11:18:56;;;;;;;7.32;3.05;;;;;;;13.15;45.53;102154.34;4989205;28;20080;-67
2022/03/10 11:21:38;;;;;;;9.05;2.72;;;;;;;13.42;45.61;102159.13;4989906;28;20488;-68
2022/03/10 11:24:18;;;;;;;;;;;;;;;13.55;45.76;102143.69;4991171;28;20038;-68
2022/03/10 11:26:53;;;;;;;8.63;3.50;;;;;;;13.62;45.03;102135.81;4972735;28;20012;-68
2022/03/10 11:29:24;;;;;;;8.00;2.95;;;;;;;13.61;44.91;102149.69;4988223;28;20038;-68
2022/03/10 11:31:53;;;;;;;10.30;3.78;;;;;;;13.56;45.00;102148.78;4987380;28;20042;-67
2022/03/10 11:34:50;;;;;;;9.48;3.13;;;;;;;13.56;44.35;102145.28;4989929;28;20132;-68